createdAt,value
2022-11-18T00:02:13.929Z,91126.44
2022-11-18T00:07:16.066Z,91144.19
2022-11-18T00:12:36.585Z,91166.47
2022-11-18T00:17:38.510Z,91123.44
2022-11-18T00:22:40.477Z,91171.88
2022-11-18T00:27:42.425Z,91176.34
2022-11-18T00:32:45.194Z,91171.31
2022-11-18T00:37:47.128Z,91181.00
2022-11-18T00:42:51.915Z,91177.16
2022-11-18T00:47:53.898Z,91187.44
2022-11-18T00:52:55.947Z,91189.59
2022-11-18T00:57:57.885Z,91175.22
2022-11-18T01:02:59.897Z,91118.91
2022-11-18T01:08:02.229Z,91201.00
2022-11-18T01:13:20.645Z,91212.25
2022-11-18T01:18:26.106Z,91195.72
2022-11-18T01:23:28.220Z,91225.78
2022-11-18T01:28:30.207Z,91221.41
2022-11-18T01:33:32.301Z,91220.69
2022-11-18T01:38:34.239Z,91207.13
2022-11-18T01:43:56.465Z,91201.59
2022-11-18T01:49:13.057Z,91195.84
2022-11-18T01:54:23.415Z,91198.13
2022-11-18T01:59:31.209Z,91186.81
2022-11-18T02:04:34.067Z,91171.56
2022-11-18T02:09:38.412Z,91181.19
2022-11-18T02:14:45.836Z,91204.94
2022-11-18T02:19:47.764Z,91244.16
2022-11-18T02:25:11.258Z,91265.97
2022-11-18T02:30:16.849Z,91282.81
2022-11-18T02:35:39.314Z,91296.63
2022-11-18T02:40:53.140Z,91275.84
2022-11-18T02:46:01.505Z,91284.31
2022-11-18T02:51:07.710Z,91275.97
2022-11-18T02:56:10.683Z,91297.56
2022-11-18T03:01:21.344Z,91296.47
2022-11-18T03:06:36.873Z,91284.75
2022-11-18T03:12:01.667Z,91288.31
2022-11-18T03:17:31.243Z,91287.63
2022-11-18T03:22:38.723Z,91309.16
2022-11-18T03:27:58.758Z,91332.41
2022-11-18T03:33:08.601Z,91311.66
2022-11-18T03:38:16.211Z,91333.44
2022-11-18T03:43:24.070Z,91287.31
2022-11-18T03:48:31.424Z,91349.59
2022-11-18T03:53:38.633Z,91336.66
2022-11-18T03:58:53.208Z,91345.34
2022-11-18T04:03:55.255Z,91325.28
2022-11-18T04:09:00.916Z,91339.16
2022-11-18T04:14:05.208Z,91324.56
2022-11-18T04:19:07.189Z,91279.69
2022-11-18T04:24:09.386Z,91335.16
2022-11-18T04:29:11.468Z,91325.31
2022-11-18T04:34:14.069Z,91322.94
2022-11-18T04:39:18.301Z,91326.72
2022-11-18T04:44:20.462Z,91345.53
2022-11-18T04:49:23.268Z,91358.97
2022-11-18T04:54:26.664Z,91357.97
2022-11-18T04:59:29.835Z,91384.50
2022-11-18T05:04:34.405Z,91389.16
2022-11-18T05:09:36.657Z,91382.28
2022-11-18T05:14:39.184Z,91395.59
2022-11-18T05:19:41.165Z,91398.44
2022-11-18T05:24:43.419Z,91407.44
2022-11-18T05:29:45.492Z,91417.69
2022-11-18T05:34:47.674Z,91424.59
2022-11-18T05:39:49.672Z,91415.19
2022-11-18T05:44:57.818Z,91411.06
2022-11-18T05:50:00.351Z,91426.41
2022-11-18T05:55:02.399Z,91454.94
2022-11-18T06:00:04.977Z,91430.28
2022-11-18T06:05:16.319Z,91456.69
2022-11-18T06:10:27.557Z,91449.75
2022-11-18T06:15:38.636Z,91479.41
2022-11-18T06:20:41.915Z,91488.84
2022-11-18T06:25:44.633Z,91494.91
2022-11-18T06:30:46.651Z,91488.34
2022-11-18T06:35:48.755Z,91484.56
2022-11-18T06:40:51.554Z,91504.94
2022-11-18T06:46:12.650Z,91504.38
2022-11-18T06:51:14.777Z,91503.34
2022-11-18T06:56:18.530Z,91510.59
2022-11-18T07:01:23.013Z,91521.53
2022-11-18T07:06:28.146Z,91530.00
2022-11-18T07:11:30.357Z,91527.53
2022-11-18T07:16:34.414Z,91534.50
2022-11-18T07:21:36.709Z,91545.75
2022-11-18T07:26:39.105Z,91541.53
2022-11-18T07:31:41.087Z,91526.88
2022-11-18T07:36:43.333Z,91568.44
2022-11-18T07:41:45.268Z,91583.00
2022-11-18T07:46:48.571Z,91569.06
2022-11-18T07:51:50.505Z,91583.25
2022-11-18T07:56:52.603Z,91586.06
2022-11-18T08:01:54.570Z,91603.44
2022-11-18T08:06:56.556Z,91597.94
2022-11-18T08:11:58.525Z,91582.16
2022-11-18T08:17:00.591Z,91598.84
2022-11-18T08:22:02.525Z,91593.72
2022-11-18T08:27:04.546Z,91610.16
2022-11-18T08:32:07.130Z,91626.13
2022-11-18T08:37:09.105Z,91623.22
2022-11-18T08:42:11.089Z,91610.84
2022-11-18T08:47:13.032Z,91633.69
2022-11-18T08:52:14.999Z,91646.66
2022-11-18T08:57:16.939Z,91644.16
2022-11-18T09:02:21.387Z,91639.56
2022-11-18T09:07:23.407Z,91633.56
2022-11-18T09:12:25.382Z,91664.91
2022-11-18T09:17:27.452Z,91640.72
2022-11-18T09:22:29.453Z,91656.88
2022-11-18T09:27:31.365Z,91667.25
2022-11-18T09:32:34.076Z,91656.34
2022-11-18T09:37:36.049Z,91668.84
2022-11-18T09:43:06.709Z,91684.72
2022-11-18T09:48:45.206Z,91680.84
2022-11-18T09:53:47.489Z,91682.16
2022-11-18T09:58:49.874Z,91670.22
2022-11-18T10:03:51.923Z,91690.84
2022-11-18T10:09:35.486Z,91706.13
2022-11-18T10:14:46.947Z,91695.41
2022-11-18T10:20:17.002Z,91702.59
2022-11-18T10:25:19.770Z,91676.34
2022-11-18T10:30:24.730Z,91690.25
2022-11-18T10:35:38.300Z,91695.81
2022-11-18T10:41:06.779Z,91695.59
2022-11-18T10:46:44.053Z,91686.75
2022-11-18T10:52:05.678Z,91679.16
2022-11-18T10:57:23.172Z,91662.63
2022-11-18T11:02:40.049Z,91685.59
2022-11-18T11:07:42.179Z,91679.47
2022-11-18T11:12:56.192Z,91683.53
2022-11-18T11:18:24.327Z,91657.84
2022-11-18T11:23:27.276Z,91666.38
2022-11-18T11:28:49.429Z,91661.81
2022-11-18T11:34:12.833Z,91678.41
2022-11-18T11:39:39.372Z,91658.59
2022-11-18T11:45:19.631Z,91654.59
2022-11-18T11:50:30.443Z,91665.50
2022-11-18T11:55:47.136Z,91651.13
2022-11-18T12:01:30.386Z,91673.06
2022-11-18T12:06:32.653Z,91666.81
2022-11-18T12:11:45.410Z,91656.78
2022-11-18T12:17:05.329Z,91669.00
2022-11-18T12:22:07.482Z,91679.28
2022-11-18T12:27:09.728Z,91680.94
2022-11-18T12:32:36.375Z,91670.75
2022-11-18T12:37:57.410Z,91660.94
2022-11-18T12:43:18.938Z,91669.19
2022-11-18T12:48:27.268Z,91686.19
2022-11-18T12:53:32.782Z,91685.59
2022-11-18T12:58:35.304Z,91664.22
2022-11-18T13:03:37.325Z,91679.47
2022-11-18T13:08:41.729Z,91659.75
2022-11-18T13:13:45.364Z,91672.47
2022-11-18T13:18:53.089Z,91673.19
2022-11-18T13:24:02.289Z,91687.66
2022-11-18T13:29:51.121Z,91687.59
2022-11-18T13:34:58.473Z,91661.88
2022-11-18T13:40:00.550Z,91663.53
2022-11-18T13:45:03.431Z,91657.19
2022-11-18T13:50:27.779Z,91638.66
2022-11-18T13:55:36.321Z,91633.16
2022-11-18T14:00:38.310Z,91631.00
2022-11-18T14:05:41.457Z,91641.53
2022-11-18T14:10:44.642Z,91628.25
2022-11-18T14:15:46.779Z,91620.75
2022-11-18T14:20:53.862Z,91612.69
2022-11-18T14:25:57.379Z,91643.63
2022-11-18T14:31:03.921Z,91630.09
2022-11-18T14:36:16.308Z,91627.13
2022-11-18T14:41:43.915Z,91627.25
2022-11-18T14:46:57.873Z,91625.97
2022-11-18T14:52:02.704Z,91629.69
2022-11-18T14:57:05.831Z,91620.84
2022-11-18T15:02:16.359Z,91625.78
2022-11-18T15:07:23.553Z,91629.50
2022-11-18T15:12:26.754Z,91622.56
2022-11-18T15:17:29.802Z,91635.53
2022-11-18T15:22:31.722Z,91631.41
2022-11-18T15:27:34.236Z,91625.84
2022-11-18T15:32:36.250Z,91622.31
2022-11-18T15:37:38.440Z,91620.53
2022-11-18T15:42:48.980Z,91637.19
2022-11-18T15:47:53.844Z,91648.69
2022-11-18T15:52:56.555Z,91632.13
2022-11-18T15:57:58.636Z,91653.88
2022-11-18T16:03:00.595Z,91650.06
2022-11-18T16:08:02.546Z,91669.16
2022-11-18T16:13:04.476Z,91675.41
2022-11-18T16:18:06.480Z,91674.50
2022-11-18T16:23:08.513Z,91661.44
2022-11-18T16:28:10.495Z,91680.19
2022-11-18T16:33:12.812Z,91680.63
2022-11-18T16:38:14.853Z,91672.34
2022-11-18T16:43:17.052Z,91677.16
2022-11-18T16:48:20.161Z,91672.59
2022-11-18T16:53:22.109Z,91677.97
2022-11-18T16:58:24.080Z,91686.28
2022-11-18T17:03:26.093Z,91676.22
2022-11-18T17:08:28.071Z,91686.41
2022-11-18T17:13:30.050Z,91694.19
2022-11-18T17:18:32.040Z,91693.97
2022-11-18T17:23:35.270Z,91694.97
2022-11-18T17:28:38.110Z,91697.66
2022-11-18T17:33:41.959Z,91686.63
2022-11-18T17:38:47.028Z,91708.72
2022-11-18T17:43:49.284Z,91709.63
2022-11-18T17:48:56.151Z,91691.28
2022-11-18T17:53:59.997Z,91691.72
2022-11-18T17:59:02.548Z,91708.72
2022-11-18T18:04:05.249Z,91704.78
2022-11-18T18:09:07.504Z,91695.22
2022-11-18T18:14:13.407Z,91698.50
2022-11-18T18:19:18.387Z,91707.78
2022-11-18T18:24:21.139Z,91697.59
2022-11-18T18:29:25.753Z,91694.56
2022-11-18T18:34:28.781Z,91694.81
2022-11-18T18:39:30.819Z,91680.16
2022-11-18T18:44:51.420Z,91681.97
2022-11-18T18:49:53.479Z,91691.25
2022-11-18T18:54:55.469Z,91686.78
2022-11-18T18:59:57.517Z,91704.16
2022-11-18T19:05:00.436Z,91691.47
2022-11-18T19:10:02.641Z,91714.19
2022-11-18T19:15:05.154Z,91712.84
2022-11-18T19:20:26.726Z,91715.88
2022-11-18T19:25:29.243Z,91720.19
2022-11-18T19:30:32.369Z,91708.00
2022-11-18T19:35:34.537Z,91719.75
2022-11-18T19:40:36.814Z,91732.84
2022-11-18T19:45:38.844Z,91728.84
2022-11-18T19:50:40.812Z,91718.94
2022-11-18T19:55:53.300Z,91686.28
2022-11-18T20:00:55.376Z,91709.25
2022-11-18T20:06:01.405Z,91735.16
2022-11-18T20:11:09.180Z,91730.94
2022-11-18T20:16:12.861Z,91731.69
2022-11-18T20:21:19.967Z,91719.41
2022-11-18T20:26:25.345Z,91734.56
2022-11-18T20:31:28.380Z,91726.16
2022-11-18T20:36:35.825Z,91705.88
2022-11-18T20:41:37.778Z,91710.22
2022-11-18T20:46:39.682Z,91722.34
2022-11-18T20:51:41.663Z,91707.19
2022-11-18T20:56:43.670Z,91712.94
2022-11-18T21:01:45.608Z,91694.34
2022-11-18T21:06:47.832Z,91677.16
2022-11-18T21:11:49.769Z,91705.81
2022-11-18T21:16:53.948Z,91705.75
2022-11-18T21:21:56.646Z,91706.84
2022-11-18T21:26:59.724Z,91698.22
2022-11-18T21:32:01.811Z,91708.03
2022-11-18T21:37:05.668Z,91707.00
2022-11-18T21:42:08.089Z,91712.03
2022-11-18T21:47:10.014Z,91723.19
2022-11-18T21:52:12.041Z,91712.19
2022-11-18T21:57:13.979Z,91691.75
2022-11-18T22:02:15.855Z,91694.59
2022-11-18T22:07:18.088Z,91701.75
2022-11-18T22:12:20.088Z,91711.44
2022-11-18T22:17:22.012Z,91701.53
2022-11-18T22:22:23.946Z,91705.69
2022-11-18T22:27:26.019Z,91705.72
2022-11-18T22:32:27.975Z,91688.84
2022-11-18T22:37:30.045Z,91700.19
2022-11-18T22:42:50.597Z,91683.06
2022-11-18T22:47:52.578Z,91691.84
2022-11-18T22:52:54.683Z,91701.03
2022-11-18T22:57:56.569Z,91687.47
2022-11-18T23:02:58.442Z,91706.69
2022-11-18T23:08:00.387Z,91689.34
2022-11-18T23:13:20.548Z,91709.59
2022-11-18T23:18:22.454Z,91694.75
2022-11-18T23:23:24.587Z,91691.75
2022-11-18T23:28:26.478Z,91708.06
2022-11-18T23:33:28.435Z,91688.03
2022-11-18T23:38:32.245Z,91707.78
2022-11-18T23:43:34.972Z,91722.69
2022-11-18T23:48:39.412Z,91718.53
2022-11-18T23:53:41.958Z,91695.66
2022-11-18T23:58:46.395Z,91721.47
